sensor_id;sensor_type;location;lat;lon;timestamp;temperature;humidity
7720;DHT22;3902;49.474;8.616;2022-10-22T00:01:05;16.20;99.90
7720;DHT22;3902;49.474;8.616;2022-10-22T00:03:31;16.20;99.90
7720;DHT22;3902;49.474;8.616;2022-10-22T00:05:56;16.20;99.90
7720;DHT22;3902;49.474;8.616;2022-10-22T00:08:22;16.20;99.90
7720;DHT22;3902;49.474;8.616;2022-10-22T00:10:48;16.20;99.90
7720;DHT22;3902;49.474;8.616;2022-10-22T00:13:14;16.20;99.90
7720;DHT22;3902;49.474;8.616;2022-10-22T00:15:39;16.20;99.90
7720;DHT22;3902;49.474;8.616;2022-10-22T00:18:05;16.20;99.90
7720;DHT22;3902;49.474;8.616;2022-10-22T00:20:31;16.10;99.90
7720;DHT22;3902;49.474;8.616;2022-10-22T00:22:56;16.10;99.90
7720;DHT22;3902;49.474;8.616;2022-10-22T00:25:23;16.10;99.90
7720;DHT22;3902;49.474;8.616;2022-10-22T00:27:48;16.10;99.90
7720;DHT22;3902;49.474;8.616;2022-10-22T00:30:14;16.10;99.90
7720;DHT22;3902;49.474;8.616;2022-10-22T00:32:39;16.10;99.90
7720;DHT22;3902;49.474;8.616;2022-10-22T00:35:05;16.10;99.90
7720;DHT22;3902;49.474;8.616;2022-10-22T00:37:31;16.10;99.90
7720;DHT22;3902;49.474;8.616;2022-10-22T00:39:56;16.10;99.90
7720;DHT22;3902;49.474;8.616;2022-10-22T00:42:25;16.10;99.90
7720;DHT22;3902;49.474;8.616;2022-10-22T00:45:13;16.10;99.90
7720;DHT22;3902;49.474;8.616;2022-10-22T00:47:43;16.10;99.90
7720;DHT22;3902;49.474;8.616;2022-10-22T00:50:20;16.10;99.90
7720;DHT22;3902;49.474;8.616;2022-10-22T00:52:48;16.00;99.90
7720;DHT22;3902;49.474;8.616;2022-10-22T00:55:14;16.10;99.90
7720;DHT22;3902;49.474;8.616;2022-10-22T00:57:40;16.10;99.90
7720;DHT22;3902;49.474;8.616;2022-10-22T01:00:07;16.10;99.90
7720;DHT22;3902;49.474;8.616;2022-10-22T01:02:33;16.00;99.90
7720;DHT22;3902;49.474;8.616;2022-10-22T01:04:58;16.00;99.90
7720;DHT22;3902;49.474;8.616;2022-10-22T01:07:25;16.00;99.90
7720;DHT22;3902;49.474;8.616;2022-10-22T01:10:04;16.00;99.90
7720;DHT22;3902;49.474;8.616;2022-10-22T01:13:13;16.00;99.90
7720;DHT22;3902;49.474;8.616;2022-10-22T01:15:59;16.00;99.90
7720;DHT22;3902;49.474;8.616;2022-10-22T01:18:48;16.00;99.90
7720;DHT22;3902;49.474;8.616;2022-10-22T01:21:25;16.00;99.90
7720;DHT22;3902;49.474;8.616;2022-10-22T01:26:59;16.00;99.90
7720;DHT22;3902;49.474;8.616;2022-10-22T01:29:42;15.90;99.90
7720;DHT22;3902;49.474;8.616;2022-10-22T01:32:19;15.90;99.90
7720;DHT22;3902;49.474;8.616;2022-10-22T01:34:48;16.00;99.90
7720;DHT22;3902;49.474;8.616;2022-10-22T01:37:16;15.90;99.90
7720;DHT22;3902;49.474;8.616;2022-10-22T01:39:44;15.90;99.90
7720;DHT22;3902;49.474;8.616;2022-10-22T01:42:13;16.00;99.90
7720;DHT22;3902;49.474;8.616;2022-10-22T01:44:39;16.00;99.90
7720;DHT22;3902;49.474;8.616;2022-10-22T01:55:02;16.00;99.90
7720;DHT22;3902;49.474;8.616;2022-10-22T01:57:42;15.90;99.90
7720;DHT22;3902;49.474;8.616;2022-10-22T02:00:10;15.90;99.90
7720;DHT22;3902;49.474;8.616;2022-10-22T02:02:56;15.90;99.90
7720;DHT22;3902;49.474;8.616;2022-10-22T02:05:30;15.90;99.90
7720;DHT22;3902;49.474;8.616;2022-10-22T02:08:00;15.90;99.90
7720;DHT22;3902;49.474;8.616;2022-10-22T02:10:28;15.90;99.90
7720;DHT22;3902;49.474;8.616;2022-10-22T02:12:55;15.80;99.90
7720;DHT22;3902;49.474;8.616;2022-10-22T02:15:24;15.80;99.90
7720;DHT22;3902;49.474;8.616;2022-10-22T02:17:52;15.70;99.90
7720;DHT22;3902;49.474;8.616;2022-10-22T02:20:23;15.80;99.90
7720;DHT22;3902;49.474;8.616;2022-10-22T02:22:50;15.80;99.90
7720;DHT22;3902;49.474;8.616;2022-10-22T02:25:16;15.80;99.90
7720;DHT22;3902;49.474;8.616;2022-10-22T02:27:53;15.80;99.90
7720;DHT22;3902;49.474;8.616;2022-10-22T02:30:21;15.90;99.90
7720;DHT22;3902;49.474;8.616;2022-10-22T02:35:19;15.90;99.90
7720;DHT22;3902;49.474;8.616;2022-10-22T02:37:45;15.90;99.90
7720;DHT22;3902;49.474;8.616;2022-10-22T02:40:17;15.90;99.90
7720;DHT22;3902;49.474;8.616;2022-10-22T02:42:43;15.90;99.90
7720;DHT22;3902;49.474;8.616;2022-10-22T02:45:10;15.90;99.90
7720;DHT22;3902;49.474;8.616;2022-10-22T02:47:36;15.90;99.90
7720;DHT22;3902;49.474;8.616;2022-10-22T02:50:02;15.90;99.90
7720;DHT22;3902;49.474;8.616;2022-10-22T02:52:27;15.90;99.90
7720;DHT22;3902;49.474;8.616;2022-10-22T02:54:53;15.90;99.90
7720;DHT22;3902;49.474;8.616;2022-10-22T02:57:18;15.90;99.90
7720;DHT22;3902;49.474;8.616;2022-10-22T02:59:44;15.90;99.90
7720;DHT22;3902;49.474;8.616;2022-10-22T03:02:09;15.80;99.90
7720;DHT22;3902;49.474;8.616;2022-10-22T03:04:35;15.80;99.90
7720;DHT22;3902;49.474;8.616;2022-10-22T03:07:00;15.80;99.90
7720;DHT22;3902;49.474;8.616;2022-10-22T03:09:26;15.80;99.90
7720;DHT22;3902;49.474;8.616;2022-10-22T03:11:51;15.80;99.90
7720;DHT22;3902;49.474;8.616;2022-10-22T03:14:17;15.80;99.90
7720;DHT22;3902;49.474;8.616;2022-10-22T03:16:42;15.80;99.90
7720;DHT22;3902;49.474;8.616;2022-10-22T03:19:08;15.80;99.90
7720;DHT22;3902;49.474;8.616;2022-10-22T03:21:44;15.80;99.90
7720;DHT22;3902;49.474;8.616;2022-10-22T03:24:17;15.80;99.90
7720;DHT22;3902;49.474;8.616;2022-10-22T03:26:44;15.80;99.90
7720;DHT22;3902;49.474;8.616;2022-10-22T03:29:12;15.80;99.90
7720;DHT22;3902;49.474;8.616;2022-10-22T03:31:39;15.80;99.90
7720;DHT22;3902;49.474;8.616;2022-10-22T03:34:05;15.80;99.90
7720;DHT22;3902;49.474;8.616;2022-10-22T03:36:31;15.80;99.90
7720;DHT22;3902;49.474;8.616;2022-10-22T03:38:58;15.80;99.90
7720;DHT22;3902;49.474;8.616;2022-10-22T03:41:24;15.80;99.90
7720;DHT22;3902;49.474;8.616;2022-10-22T03:43:50;15.70;99.90
7720;DHT22;3902;49.474;8.616;2022-10-22T03:46:17;15.70;99.90
7720;DHT22;3902;49.474;8.616;2022-10-22T03:48:43;15.70;99.90
7720;DHT22;3902;49.474;8.616;2022-10-22T03:51:09;15.70;99.90
7720;DHT22;3902;49.474;8.616;2022-10-22T03:53:34;15.70;99.90
7720;DHT22;3902;49.474;8.616;2022-10-22T03:56:00;15.60;99.90
7720;DHT22;3902;49.474;8.616;2022-10-22T03:58:25;15.60;99.90
7720;DHT22;3902;49.474;8.616;2022-10-22T04:00:51;15.70;99.90
7720;DHT22;3902;49.474;8.616;2022-10-22T04:03:16;15.60;99.90
7720;DHT22;3902;49.474;8.616;2022-10-22T04:05:42;15.60;99.90
7720;DHT22;3902;49.474;8.616;2022-10-22T04:08:07;15.60;99.90
7720;DHT22;3902;49.474;8.616;2022-10-22T04:10:33;15.60;99.90
7720;DHT22;3902;49.474;8.616;2022-10-22T04:12:58;15.60;99.90
7720;DHT22;3902;49.474;8.616;2022-10-22T04:15:24;15.50;99.90
7720;DHT22;3902;49.474;8.616;2022-10-22T04:17:52;15.50;99.90
7720;DHT22;3902;49.474;8.616;2022-10-22T04:20:18;15.50;99.90
7720;DHT22;3902;49.474;8.616;2022-10-22T04:22:44;15.40;99.90
7720;DHT22;3902;49.474;8.616;2022-10-22T04:25:09;15.40;99.90
7720;DHT22;3902;49.474;8.616;2022-10-22T04:27:35;15.40;99.90
7720;DHT22;3902;49.474;8.616;2022-10-22T04:30:01;15.40;99.90
7720;DHT22;3902;49.474;8.616;2022-10-22T04:32:27;15.40;99.90
7720;DHT22;3902;49.474;8.616;2022-10-22T04:34:52;15.40;99.90
7720;DHT22;3902;49.474;8.616;2022-10-22T04:37:18;15.30;99.90
7720;DHT22;3902;49.474;8.616;2022-10-22T04:39:43;15.30;99.90
7720;DHT22;3902;49.474;8.616;2022-10-22T04:42:09;15.30;99.90
7720;DHT22;3902;49.474;8.616;2022-10-22T04:44:35;15.30;99.90
7720;DHT22;3902;49.474;8.616;2022-10-22T04:47:00;15.30;99.90
7720;DHT22;3902;49.474;8.616;2022-10-22T04:49:26;15.20;99.90
7720;DHT22;3902;49.474;8.616;2022-10-22T04:51:51;15.20;99.90
7720;DHT22;3902;49.474;8.616;2022-10-22T04:54:17;15.20;99.90
7720;DHT22;3902;49.474;8.616;2022-10-22T04:56:42;15.10;99.90
7720;DHT22;3902;49.474;8.616;2022-10-22T04:59:10;15.20;99.90
7720;DHT22;3902;49.474;8.616;2022-10-22T05:01:39;15.10;99.90
7720;DHT22;3902;49.474;8.616;2022-10-22T05:04:07;15.10;99.90
7720;DHT22;3902;49.474;8.616;2022-10-22T05:06:34;15.10;99.90
7720;DHT22;3902;49.474;8.616;2022-10-22T05:09:05;15.10;99.90
7720;DHT22;3902;49.474;8.616;2022-10-22T05:11:37;15.10;99.90
7720;DHT22;3902;49.474;8.616;2022-10-22T05:14:06;15.10;99.90
7720;DHT22;3902;49.474;8.616;2022-10-22T05:16:33;15.10;99.90
7720;DHT22;3902;49.474;8.616;2022-10-22T05:18:59;15.10;99.90
7720;DHT22;3902;49.474;8.616;2022-10-22T05:21:25;15.10;99.90
7720;DHT22;3902;49.474;8.616;2022-10-22T05:23:53;15.20;99.90
7720;DHT22;3902;49.474;8.616;2022-10-22T05:26:20;15.10;99.90
7720;DHT22;3902;49.474;8.616;2022-10-22T05:28:47;15.10;99.90
7720;DHT22;3902;49.474;8.616;2022-10-22T05:31:14;15.10;99.90
7720;DHT22;3902;49.474;8.616;2022-10-22T05:33:40;15.10;99.90
7720;DHT22;3902;49.474;8.616;2022-10-22T05:36:08;15.10;99.90
7720;DHT22;3902;49.474;8.616;2022-10-22T05:38:35;15.10;99.90
7720;DHT22;3902;49.474;8.616;2022-10-22T05:41:03;15.10;99.90
7720;DHT22;3902;49.474;8.616;2022-10-22T05:43:30;15.10;99.90
7720;DHT22;3902;49.474;8.616;2022-10-22T05:45:59;15.10;99.90
7720;DHT22;3902;49.474;8.616;2022-10-22T05:48:25;15.00;99.90
7720;DHT22;3902;49.474;8.616;2022-10-22T05:50:50;15.00;99.90
7720;DHT22;3902;49.474;8.616;2022-10-22T05:53:17;15.10;99.90
7720;DHT22;3902;49.474;8.616;2022-10-22T05:55:43;15.00;99.90
7720;DHT22;3902;49.474;8.616;2022-10-22T05:58:10;15.00;99.90
7720;DHT22;3902;49.474;8.616;2022-10-22T06:00:36;15.00;99.90
7720;DHT22;3902;49.474;8.616;2022-10-22T06:03:01;15.00;99.90
7720;DHT22;3902;49.474;8.616;2022-10-22T06:05:27;14.90;99.90
7720;DHT22;3902;49.474;8.616;2022-10-22T06:07:53;15.00;99.90
7720;DHT22;3902;49.474;8.616;2022-10-22T06:10:19;15.00;99.90
7720;DHT22;3902;49.474;8.616;2022-10-22T06:12:46;14.90;99.90
7720;DHT22;3902;49.474;8.616;2022-10-22T06:15:13;14.90;99.90
7720;DHT22;3902;49.474;8.616;2022-10-22T06:17:39;14.90;99.90
7720;DHT22;3902;49.474;8.616;2022-10-22T06:20:05;14.90;99.90
7720;DHT22;3902;49.474;8.616;2022-10-22T06:22:32;14.90;99.90
7720;DHT22;3902;49.474;8.616;2022-10-22T06:24:57;14.90;99.90
7720;DHT22;3902;49.474;8.616;2022-10-22T06:27:23;14.90;99.90
7720;DHT22;3902;49.474;8.616;2022-10-22T06:29:48;14.90;99.90
7720;DHT22;3902;49.474;8.616;2022-10-22T06:32:14;14.90;99.90
7720;DHT22;3902;49.474;8.616;2022-10-22T06:34:39;15.00;99.90
7720;DHT22;3902;49.474;8.616;2022-10-22T06:37:05;15.00;99.90
7720;DHT22;3902;49.474;8.616;2022-10-22T06:39:30;15.00;99.90
7720;DHT22;3902;49.474;8.616;2022-10-22T06:41:56;15.00;99.90
7720;DHT22;3902;49.474;8.616;2022-10-22T06:44:21;15.00;99.90
7720;DHT22;3902;49.474;8.616;2022-10-22T06:46:51;15.00;99.90
7720;DHT22;3902;49.474;8.616;2022-10-22T06:49:17;15.10;99.90
7720;DHT22;3902;49.474;8.616;2022-10-22T06:51:43;15.10;99.90
7720;DHT22;3902;49.474;8.616;2022-10-22T06:54:09;15.10;99.90
7720;DHT22;3902;49.474;8.616;2022-10-22T06:56:35;15.10;99.90
7720;DHT22;3902;49.474;8.616;2022-10-22T06:59:00;15.10;99.90
7720;DHT22;3902;49.474;8.616;2022-10-22T07:01:29;15.10;99.90
7720;DHT22;3902;49.474;8.616;2022-10-22T07:03:55;15.10;99.90
7720;DHT22;3902;49.474;8.616;2022-10-22T07:06:22;15.20;99.90
7720;DHT22;3902;49.474;8.616;2022-10-22T07:08:48;15.10;99.90
7720;DHT22;3902;49.474;8.616;2022-10-22T07:11:25;15.20;99.90
7720;DHT22;3902;49.474;8.616;2022-10-22T07:13:53;15.20;99.90
7720;DHT22;3902;49.474;8.616;2022-10-22T07:16:19;15.20;99.90
7720;DHT22;3902;49.474;8.616;2022-10-22T07:18:45;15.30;99.90
7720;DHT22;3902;49.474;8.616;2022-10-22T07:21:12;15.30;99.90
7720;DHT22;3902;49.474;8.616;2022-10-22T07:23:38;15.30;99.90
7720;DHT22;3902;49.474;8.616;2022-10-22T07:26:05;15.30;99.90
7720;DHT22;3902;49.474;8.616;2022-10-22T07:28:32;15.30;99.90
7720;DHT22;3902;49.474;8.616;2022-10-22T07:31:22;15.30;99.90
7720;DHT22;3902;49.474;8.616;2022-10-22T07:33:48;15.40;99.90
7720;DHT22;3902;49.474;8.616;2022-10-22T07:36:15;15.40;99.90
7720;DHT22;3902;49.474;8.616;2022-10-22T07:38:46;15.40;99.90
7720;DHT22;3902;49.474;8.616;2022-10-22T07:41:13;15.50;99.90
7720;DHT22;3902;49.474;8.616;2022-10-22T07:43:39;15.40;99.90
7720;DHT22;3902;49.474;8.616;2022-10-22T07:46:04;15.50;99.90
7720;DHT22;3902;49.474;8.616;2022-10-22T07:48:31;15.50;99.90
7720;DHT22;3902;49.474;8.616;2022-10-22T07:50:56;15.50;99.90
7720;DHT22;3902;49.474;8.616;2022-10-22T07:53:23;15.50;99.90
7720;DHT22;3902;49.474;8.616;2022-10-22T07:55:49;15.50;99.90
7720;DHT22;3902;49.474;8.616;2022-10-22T07:58:17;15.50;99.90
7720;DHT22;3902;49.474;8.616;2022-10-22T08:00:43;15.50;99.90
7720;DHT22;3902;49.474;8.616;2022-10-22T08:03:10;15.50;99.90
7720;DHT22;3902;49.474;8.616;2022-10-22T08:05:36;15.50;99.90
7720;DHT22;3902;49.474;8.616;2022-10-22T08:08:04;15.50;99.90
7720;DHT22;3902;49.474;8.616;2022-10-22T08:10:29;15.50;99.90
7720;DHT22;3902;49.474;8.616;2022-10-22T08:12:56;15.50;99.90
7720;DHT22;3902;49.474;8.616;2022-10-22T08:15:21;15.50;99.90
7720;DHT22;3902;49.474;8.616;2022-10-22T08:17:49;15.60;99.90
7720;DHT22;3902;49.474;8.616;2022-10-22T08:20:14;15.60;99.90
7720;DHT22;3902;49.474;8.616;2022-10-22T08:22:40;15.60;99.90
7720;DHT22;3902;49.474;8.616;2022-10-22T08:25:06;15.60;99.90
7720;DHT22;3902;49.474;8.616;2022-10-22T08:27:32;15.60;99.90
7720;DHT22;3902;49.474;8.616;2022-10-22T08:29:57;15.60;99.90
7720;DHT22;3902;49.474;8.616;2022-10-22T08:32:23;15.60;99.90
7720;DHT22;3902;49.474;8.616;2022-10-22T08:34:48;15.70;99.90
7720;DHT22;3902;49.474;8.616;2022-10-22T08:37:14;15.70;99.90
7720;DHT22;3902;49.474;8.616;2022-10-22T08:39:42;15.70;99.90
7720;DHT22;3902;49.474;8.616;2022-10-22T08:45:26;15.80;99.90
7720;DHT22;3902;49.474;8.616;2022-10-22T08:48:34;15.80;99.90
7720;DHT22;3902;49.474;8.616;2022-10-22T08:51:03;15.80;99.90
7720;DHT22;3902;49.474;8.616;2022-10-22T08:56:09;15.90;99.90
7720;DHT22;3902;49.474;8.616;2022-10-22T08:58:42;16.00;99.90
7720;DHT22;3902;49.474;8.616;2022-10-22T09:01:20;16.00;99.90
7720;DHT22;3902;49.474;8.616;2022-10-22T09:03:49;16.10;99.90
7720;DHT22;3902;49.474;8.616;2022-10-22T09:06:21;16.10;99.90
7720;DHT22;3902;49.474;8.616;2022-10-22T09:08:48;16.20;99.90
7720;DHT22;3902;49.474;8.616;2022-10-22T09:11:33;16.20;99.90
7720;DHT22;3902;49.474;8.616;2022-10-22T09:14:00;16.20;99.90
7720;DHT22;3902;49.474;8.616;2022-10-22T09:16:37;16.30;99.90
7720;DHT22;3902;49.474;8.616;2022-10-22T09:19:32;16.40;99.90
7720;DHT22;3902;49.474;8.616;2022-10-22T09:27:35;16.60;99.90
7720;DHT22;3902;49.474;8.616;2022-10-22T09:30:01;16.60;99.90
7720;DHT22;3902;49.474;8.616;2022-10-22T09:32:27;16.70;99.90
7720;DHT22;3902;49.474;8.616;2022-10-22T09:34:56;16.70;99.90
7720;DHT22;3902;49.474;8.616;2022-10-22T09:37:26;16.80;99.90
7720;DHT22;3902;49.474;8.616;2022-10-22T09:39:54;16.80;99.90
7720;DHT22;3902;49.474;8.616;2022-10-22T09:42:21;16.80;99.90
7720;DHT22;3902;49.474;8.616;2022-10-22T09:44:56;16.90;99.90
7720;DHT22;3902;49.474;8.616;2022-10-22T09:47:36;17.00;99.90
7720;DHT22;3902;49.474;8.616;2022-10-22T09:52:33;17.00;99.90
7720;DHT22;3902;49.474;8.616;2022-10-22T09:55:01;17.10;99.90
7720;DHT22;3902;49.474;8.616;2022-10-22T09:57:28;17.10;99.90
7720;DHT22;3902;49.474;8.616;2022-10-22T09:59:54;17.20;99.90
7720;DHT22;3902;49.474;8.616;2022-10-22T10:02:27;17.30;99.90
7720;DHT22;3902;49.474;8.616;2022-10-22T10:04:55;17.30;99.90
7720;DHT22;3902;49.474;8.616;2022-10-22T10:07:22;17.40;99.90
7720;DHT22;3902;49.474;8.616;2022-10-22T10:09:49;17.40;99.90
7720;DHT22;3902;49.474;8.616;2022-10-22T10:15:23;17.60;99.90
7720;DHT22;3902;49.474;8.616;2022-10-22T10:23:30;17.90;99.90
7720;DHT22;3902;49.474;8.616;2022-10-22T10:26:08;18.10;99.90
7720;DHT22;3902;49.474;8.616;2022-10-22T10:28:58;18.10;99.90
7720;DHT22;3902;49.474;8.616;2022-10-22T10:37:23;18.40;99.90
7720;DHT22;3902;49.474;8.616;2022-10-22T10:42:47;18.70;99.90
7720;DHT22;3902;49.474;8.616;2022-10-22T10:50:30;20.20;99.90
7720;DHT22;3902;49.474;8.616;2022-10-22T10:55:54;22.20;99.90
7720;DHT22;3902;49.474;8.616;2022-10-22T10:58:34;23.40;99.90
7720;DHT22;3902;49.474;8.616;2022-10-22T11:03:52;25.50;99.90
7720;DHT22;3902;49.474;8.616;2022-10-22T11:06:21;26.30;99.90
7720;DHT22;3902;49.474;8.616;2022-10-22T11:08:58;27.00;99.90
7720;DHT22;3902;49.474;8.616;2022-10-22T11:11:35;27.70;99.90
7720;DHT22;3902;49.474;8.616;2022-10-22T11:14:15;28.50;99.90
7720;DHT22;3902;49.474;8.616;2022-10-22T11:16:49;29.20;99.90
7720;DHT22;3902;49.474;8.616;2022-10-22T11:19:19;29.70;99.90
7720;DHT22;3902;49.474;8.616;2022-10-22T11:22:10;30.10;99.90
7720;DHT22;3902;49.474;8.616;2022-10-22T11:27:44;31.10;99.90
7720;DHT22;3902;49.474;8.616;2022-10-22T11:30:17;31.40;99.90
7720;DHT22;3902;49.474;8.616;2022-10-22T11:32:47;31.10;99.90
7720;DHT22;3902;49.474;8.616;2022-10-22T11:35:19;31.30;99.90
7720;DHT22;3902;49.474;8.616;2022-10-22T11:37:47;31.00;99.90
7720;DHT22;3902;49.474;8.616;2022-10-22T11:40:29;31.30;99.90
7720;DHT22;3902;49.474;8.616;2022-10-22T11:42:58;31.50;99.90
7720;DHT22;3902;49.474;8.616;2022-10-22T11:50:23;32.40;99.90
7720;DHT22;3902;49.474;8.616;2022-10-22T11:53:03;32.70;99.70
7720;DHT22;3902;49.474;8.616;2022-10-22T11:55:32;33.00;99.70
7720;DHT22;3902;49.474;8.616;2022-10-22T11:58:00;33.00;95.80
7720;DHT22;3902;49.474;8.616;2022-10-22T12:00:45;32.70;96.00
7720;DHT22;3902;49.474;8.616;2022-10-22T12:03:23;32.70;98.30
7720;DHT22;3902;49.474;8.616;2022-10-22T12:06:22;32.20;96.60
7720;DHT22;3902;49.474;8.616;2022-10-22T12:11:19;30.80;99.90
7720;DHT22;3902;49.474;8.616;2022-10-22T12:19:25;28.50;99.90
7720;DHT22;3902;49.474;8.616;2022-10-22T12:21:56;27.70;99.90
7720;DHT22;3902;49.474;8.616;2022-10-22T12:24:24;27.00;99.90
7720;DHT22;3902;49.474;8.616;2022-10-22T12:26:50;26.60;99.90
7720;DHT22;3902;49.474;8.616;2022-10-22T12:29:18;26.40;99.90
7720;DHT22;3902;49.474;8.616;2022-10-22T12:31:45;26.00;99.90
7720;DHT22;3902;49.474;8.616;2022-10-22T12:34:20;25.90;99.90
7720;DHT22;3902;49.474;8.616;2022-10-22T12:36:48;25.70;99.90
7720;DHT22;3902;49.474;8.616;2022-10-22T12:39:19;25.60;99.90
7720;DHT22;3902;49.474;8.616;2022-10-22T12:41:45;25.50;99.90
7720;DHT22;3902;49.474;8.616;2022-10-22T12:44:13;25.40;99.90
7720;DHT22;3902;49.474;8.616;2022-10-22T12:46:40;25.30;99.90
7720;DHT22;3902;49.474;8.616;2022-10-22T12:49:18;25.20;99.90
7720;DHT22;3902;49.474;8.616;2022-10-22T12:51:44;25.10;99.90
7720;DHT22;3902;49.474;8.616;2022-10-22T12:54:29;25.00;99.90
7720;DHT22;3902;49.474;8.616;2022-10-22T12:56:56;24.90;99.90
7720;DHT22;3902;49.474;8.616;2022-10-22T13:01:54;24.50;99.90
7720;DHT22;3902;49.474;8.616;2022-10-22T13:04:31;24.50;99.90
7720;DHT22;3902;49.474;8.616;2022-10-22T13:09:40;24.20;99.90
7720;DHT22;3902;49.474;8.616;2022-10-22T13:12:07;24.20;99.90
7720;DHT22;3902;49.474;8.616;2022-10-22T13:14:39;24.20;99.90
7720;DHT22;3902;49.474;8.616;2022-10-22T13:17:16;24.00;99.90
7720;DHT22;3902;49.474;8.616;2022-10-22T13:22:35;23.80;99.90
7720;DHT22;3902;49.474;8.616;2022-10-22T13:27:46;23.80;99.90
7720;DHT22;3902;49.474;8.616;2022-10-22T13:30:22;23.80;99.90
7720;DHT22;3902;49.474;8.616;2022-10-22T13:32:53;23.90;99.90
7720;DHT22;3902;49.474;8.616;2022-10-22T13:35:23;23.80;99.90
7720;DHT22;3902;49.474;8.616;2022-10-22T13:37:50;23.70;99.90
7720;DHT22;3902;49.474;8.616;2022-10-22T13:40:17;23.70;99.90
7720;DHT22;3902;49.474;8.616;2022-10-22T13:42:42;23.50;99.90
7720;DHT22;3902;49.474;8.616;2022-10-22T13:45:08;23.10;99.90
7720;DHT22;3902;49.474;8.616;2022-10-22T13:47:33;23.10;99.90
7720;DHT22;3902;49.474;8.616;2022-10-22T13:50:01;22.90;99.90
7720;DHT22;3902;49.474;8.616;2022-10-22T13:52:43;22.80;99.90
7720;DHT22;3902;49.474;8.616;2022-10-22T13:55:15;22.60;99.90
7720;DHT22;3902;49.474;8.616;2022-10-22T13:57:41;22.50;99.90
7720;DHT22;3902;49.474;8.616;2022-10-22T14:00:12;22.20;99.90
7720;DHT22;3902;49.474;8.616;2022-10-22T14:02:38;22.20;99.90
7720;DHT22;3902;49.474;8.616;2022-10-22T14:05:04;22.10;99.90
7720;DHT22;3902;49.474;8.616;2022-10-22T14:07:34;22.10;99.90
7720;DHT22;3902;49.474;8.616;2022-10-22T14:09:59;22.00;99.90
7720;DHT22;3902;49.474;8.616;2022-10-22T14:12:25;21.90;99.90
7720;DHT22;3902;49.474;8.616;2022-10-22T14:14:52;21.90;99.90
7720;DHT22;3902;49.474;8.616;2022-10-22T14:17:18;21.90;99.90
7720;DHT22;3902;49.474;8.616;2022-10-22T14:19:45;21.80;99.90
7720;DHT22;3902;49.474;8.616;2022-10-22T14:22:18;21.80;99.90
7720;DHT22;3902;49.474;8.616;2022-10-22T14:24:45;21.80;99.90
7720;DHT22;3902;49.474;8.616;2022-10-22T14:27:12;21.80;99.90
7720;DHT22;3902;49.474;8.616;2022-10-22T14:29:39;21.70;99.90
7720;DHT22;3902;49.474;8.616;2022-10-22T14:32:16;21.70;99.90
7720;DHT22;3902;49.474;8.616;2022-10-22T14:34:44;21.70;99.90
7720;DHT22;3902;49.474;8.616;2022-10-22T14:37:16;21.70;99.90
7720;DHT22;3902;49.474;8.616;2022-10-22T14:39:43;21.70;99.90
7720;DHT22;3902;49.474;8.616;2022-10-22T14:42:11;21.70;99.90
7720;DHT22;3902;49.474;8.616;2022-10-22T14:44:37;21.70;99.90
7720;DHT22;3902;49.474;8.616;2022-10-22T14:47:02;21.70;99.90
7720;DHT22;3902;49.474;8.616;2022-10-22T14:49:28;21.70;99.90
7720;DHT22;3902;49.474;8.616;2022-10-22T14:51:53;21.70;99.90
7720;DHT22;3902;49.474;8.616;2022-10-22T14:54:18;21.70;99.90
7720;DHT22;3902;49.474;8.616;2022-10-22T14:56:44;21.80;99.90
7720;DHT22;3902;49.474;8.616;2022-10-22T14:59:10;21.80;99.90
7720;DHT22;3902;49.474;8.616;2022-10-22T15:01:35;21.90;99.90
7720;DHT22;3902;49.474;8.616;2022-10-22T15:04:03;22.10;99.90
7720;DHT22;3902;49.474;8.616;2022-10-22T15:06:28;22.20;99.90
7720;DHT22;3902;49.474;8.616;2022-10-22T15:08:54;22.20;99.90
7720;DHT22;3902;49.474;8.616;2022-10-22T15:11:19;22.20;99.90
7720;DHT22;3902;49.474;8.616;2022-10-22T15:13:46;22.20;99.90
7720;DHT22;3902;49.474;8.616;2022-10-22T15:16:14;22.10;99.90
7720;DHT22;3902;49.474;8.616;2022-10-22T15:18:40;22.10;99.90
7720;DHT22;3902;49.474;8.616;2022-10-22T15:21:17;22.00;99.90
7720;DHT22;3902;49.474;8.616;2022-10-22T15:23:42;21.90;99.90
7720;DHT22;3902;49.474;8.616;2022-10-22T15:26:10;21.80;99.90
7720;DHT22;3902;49.474;8.616;2022-10-22T15:28:36;21.70;99.90
7720;DHT22;3902;49.474;8.616;2022-10-22T15:31:03;21.60;99.90
7720;DHT22;3902;49.474;8.616;2022-10-22T15:33:28;21.60;99.90
7720;DHT22;3902;49.474;8.616;2022-10-22T15:35:55;21.50;99.90
7720;DHT22;3902;49.474;8.616;2022-10-22T15:38:26;21.40;99.90
7720;DHT22;3902;49.474;8.616;2022-10-22T15:41:00;21.30;99.90
7720;DHT22;3902;49.474;8.616;2022-10-22T15:43:26;21.20;99.90
7720;DHT22;3902;49.474;8.616;2022-10-22T15:46:08;21.20;99.90
7720;DHT22;3902;49.474;8.616;2022-10-22T15:48:34;21.10;99.90
7720;DHT22;3902;49.474;8.616;2022-10-22T15:50:59;21.00;99.90
7720;DHT22;3902;49.474;8.616;2022-10-22T15:53:25;20.90;99.90
7720;DHT22;3902;49.474;8.616;2022-10-22T15:55:50;20.90;99.90
7720;DHT22;3902;49.474;8.616;2022-10-22T15:58:16;20.80;99.90
7720;DHT22;3902;49.474;8.616;2022-10-22T16:00:41;20.70;99.90
7720;DHT22;3902;49.474;8.616;2022-10-22T16:03:07;20.70;99.90
7720;DHT22;3902;49.474;8.616;2022-10-22T16:05:32;20.50;99.90
7720;DHT22;3902;49.474;8.616;2022-10-22T16:07:58;20.50;99.90
7720;DHT22;3902;49.474;8.616;2022-10-22T16:10:23;20.40;99.90
7720;DHT22;3902;49.474;8.616;2022-10-22T16:12:49;20.30;99.90
7720;DHT22;3902;49.474;8.616;2022-10-22T16:15:16;20.20;99.90
7720;DHT22;3902;49.474;8.616;2022-10-22T16:17:41;20.10;99.90
7720;DHT22;3902;49.474;8.616;2022-10-22T16:20:07;20.00;99.90
7720;DHT22;3902;49.474;8.616;2022-10-22T16:22:33;19.90;99.90
7720;DHT22;3902;49.474;8.616;2022-10-22T16:24:58;19.90;99.90
7720;DHT22;3902;49.474;8.616;2022-10-22T16:27:24;19.80;99.90
7720;DHT22;3902;49.474;8.616;2022-10-22T16:29:49;19.70;99.90
7720;DHT22;3902;49.474;8.616;2022-10-22T16:32:15;19.60;99.90
7720;DHT22;3902;49.474;8.616;2022-10-22T16:34:41;19.50;99.90
7720;DHT22;3902;49.474;8.616;2022-10-22T16:37:07;19.50;99.90
7720;DHT22;3902;49.474;8.616;2022-10-22T16:39:34;19.40;99.90
7720;DHT22;3902;49.474;8.616;2022-10-22T16:41:59;19.30;99.90
7720;DHT22;3902;49.474;8.616;2022-10-22T16:44:25;19.30;99.90
7720;DHT22;3902;49.474;8.616;2022-10-22T16:46:50;19.20;99.90
7720;DHT22;3902;49.474;8.616;2022-10-22T16:49:16;19.20;99.90
7720;DHT22;3902;49.474;8.616;2022-10-22T16:51:41;19.10;99.90
7720;DHT22;3902;49.474;8.616;2022-10-22T16:54:09;19.00;99.90
7720;DHT22;3902;49.474;8.616;2022-10-22T16:56:35;19.00;99.90
7720;DHT22;3902;49.474;8.616;2022-10-22T16:59:01;18.90;99.90
7720;DHT22;3902;49.474;8.616;2022-10-22T17:01:27;18.90;99.90
7720;DHT22;3902;49.474;8.616;2022-10-22T17:03:54;18.80;99.90
7720;DHT22;3902;49.474;8.616;2022-10-22T17:06:20;18.70;99.90
7720;DHT22;3902;49.474;8.616;2022-10-22T17:08:46;18.70;99.90
7720;DHT22;3902;49.474;8.616;2022-10-22T17:11:15;18.60;99.90
7720;DHT22;3902;49.474;8.616;2022-10-22T17:13:43;18.60;99.90
7720;DHT22;3902;49.474;8.616;2022-10-22T17:16:11;18.50;99.90
7720;DHT22;3902;49.474;8.616;2022-10-22T17:18:38;18.50;99.90
7720;DHT22;3902;49.474;8.616;2022-10-22T17:21:05;18.40;99.90
7720;DHT22;3902;49.474;8.616;2022-10-22T17:23:32;18.30;99.90
7720;DHT22;3902;49.474;8.616;2022-10-22T17:26:03;18.30;99.90
7720;DHT22;3902;49.474;8.616;2022-10-22T17:28:31;18.30;99.90
7720;DHT22;3902;49.474;8.616;2022-10-22T17:31:08;18.20;99.90
7720;DHT22;3902;49.474;8.616;2022-10-22T17:33:35;18.20;99.90